sensor_id;sensor_type;location;lat;lon;timestamp;P1;durP1;ratioP1;P2;durP2;ratioP2
43905;SDS011;29564;46.622;13.818;2024-01-06T00:00:28;17.55;;;7.65;;
43905;SDS011;29564;46.622;13.818;2024-01-06T00:01:29;14.73;;;7.15;;
43905;SDS011;29564;46.622;13.818;2024-01-06T00:02:30;17.40;;;8.07;;
43905;SDS011;29564;46.622;13.818;2024-01-06T00:03:32;19.65;;;7.13;;
43905;SDS011;29564;46.622;13.818;2024-01-06T00:04:33;13.68;;;6.75;;
43905;SDS011;29564;46.622;13.818;2024-01-06T00:05:34;16.70;;;8.13;;
43905;SDS011;29564;46.622;13.818;2024-01-06T00:06:36;17.08;;;7.05;;
43905;SDS011;29564;46.622;13.818;2024-01-06T00:07:37;17.92;;;6.93;;
43905;SDS011;29564;46.622;13.818;2024-01-06T00:08:38;16.95;;;8.00;;
43905;SDS011;29564;46.622;13.818;2024-01-06T00:09:40;18.63;;;6.97;;
43905;SDS011;29564;46.622;13.818;2024-01-06T00:10:41;17.23;;;7.63;;
43905;SDS011;29564;46.622;13.818;2024-01-06T00:11:42;16.80;;;7.68;;
43905;SDS011;29564;46.622;13.818;2024-01-06T00:12:44;18.02;;;7.93;;
43905;SDS011;29564;46.622;13.818;2024-01-06T00:13:45;23.20;;;8.45;;
43905;SDS011;29564;46.622;13.818;2024-01-06T00:14:47;21.02;;;8.63;;
43905;SDS011;29564;46.622;13.818;2024-01-06T00:15:49;15.80;;;8.02;;
43905;SDS011;29564;46.622;13.818;2024-01-06T00:16:50;21.30;;;8.80;;
43905;SDS011;29564;46.622;13.818;2024-01-06T00:17:52;16.65;;;7.40;;
43905;SDS011;29564;46.622;13.818;2024-01-06T00:18:53;18.40;;;8.30;;
43905;SDS011;29564;46.622;13.818;2024-01-06T00:19:54;22.38;;;9.00;;
43905;SDS011;29564;46.622;13.818;2024-01-06T00:20:55;20.77;;;8.52;;
43905;SDS011;29564;46.622;13.818;2024-01-06T00:21:57;15.05;;;7.00;;
43905;SDS011;29564;46.622;13.818;2024-01-06T00:22:58;24.00;;;9.43;;
43905;SDS011;29564;46.622;13.818;2024-01-06T00:23:59;18.75;;;7.47;;
43905;SDS011;29564;46.622;13.818;2024-01-06T00:25:01;21.05;;;8.15;;
43905;SDS011;29564;46.622;13.818;2024-01-06T00:26:03;19.60;;;7.72;;
43905;SDS011;29564;46.622;13.818;2024-01-06T00:27:04;16.58;;;8.55;;
43905;SDS011;29564;46.622;13.818;2024-01-06T00:28:06;24.95;;;8.85;;
43905;SDS011;29564;46.622;13.818;2024-01-06T00:29:07;16.90;;;7.80;;
43905;SDS011;29564;46.622;13.818;2024-01-06T00:30:08;16.45;;;7.47;;
43905;SDS011;29564;46.622;13.818;2024-01-06T00:31:10;16.73;;;8.05;;
43905;SDS011;29564;46.622;13.818;2024-01-06T00:32:11;18.05;;;7.68;;
43905;SDS011;29564;46.622;13.818;2024-01-06T00:33:12;20.30;;;7.90;;
43905;SDS011;29564;46.622;13.818;2024-01-06T00:34:13;18.60;;;7.38;;
43905;SDS011;29564;46.622;13.818;2024-01-06T00:35:15;14.18;;;7.97;;
43905;SDS011;29564;46.622;13.818;2024-01-06T00:36:16;16.15;;;7.88;;
43905;SDS011;29564;46.622;13.818;2024-01-06T00:37:17;20.83;;;8.60;;
43905;SDS011;29564;46.622;13.818;2024-01-06T00:38:19;15.13;;;7.57;;
43905;SDS011;29564;46.622;13.818;2024-01-06T00:39:20;13.95;;;6.82;;
43905;SDS011;29564;46.622;13.818;2024-01-06T00:40:22;20.02;;;7.70;;
43905;SDS011;29564;46.622;13.818;2024-01-06T00:41:23;14.55;;;6.95;;
43905;SDS011;29564;46.622;13.818;2024-01-06T00:42:24;16.75;;;7.40;;
43905;SDS011;29564;46.622;13.818;2024-01-06T00:43:25;23.10;;;7.85;;
43905;SDS011;29564;46.622;13.818;2024-01-06T00:44:27;18.92;;;8.48;;
43905;SDS011;29564;46.622;13.818;2024-01-06T00:45:28;18.80;;;7.82;;
43905;SDS011;29564;46.622;13.818;2024-01-06T00:46:31;19.80;;;8.55;;
43905;SDS011;29564;46.622;13.818;2024-01-06T00:47:32;14.40;;;6.63;;
43905;SDS011;29564;46.622;13.818;2024-01-06T00:48:33;15.05;;;8.75;;
43905;SDS011;29564;46.622;13.818;2024-01-06T00:49:35;16.23;;;8.80;;
43905;SDS011;29564;46.622;13.818;2024-01-06T00:50:36;22.08;;;7.88;;
43905;SDS011;29564;46.622;13.818;2024-01-06T00:51:37;16.75;;;6.78;;
43905;SDS011;29564;46.622;13.818;2024-01-06T00:52:38;20.40;;;7.82;;
43905;SDS011;29564;46.622;13.818;2024-01-06T00:53:40;19.00;;;7.60;;
43905;SDS011;29564;46.622;13.818;2024-01-06T00:54:41;15.32;;;7.57;;
43905;SDS011;29564;46.622;13.818;2024-01-06T00:55:43;15.75;;;8.00;;
43905;SDS011;29564;46.622;13.818;2024-01-06T00:56:44;15.65;;;7.28;;
43905;SDS011;29564;46.622;13.818;2024-01-06T00:57:45;16.25;;;7.15;;
43905;SDS011;29564;46.622;13.818;2024-01-06T00:58:47;14.48;;;7.20;;
43905;SDS011;29564;46.622;13.818;2024-01-06T00:59:48;15.05;;;7.65;;
43905;SDS011;29564;46.622;13.818;2024-01-06T01:00:49;14.85;;;7.25;;
43905;SDS011;29564;46.622;13.818;2024-01-06T01:01:50;19.42;;;8.32;;
43905;SDS011;29564;46.622;13.818;2024-01-06T01:02:52;16.98;;;8.45;;
43905;SDS011;29564;46.622;13.818;2024-01-06T01:03:53;16.88;;;7.03;;
43905;SDS011;29564;46.622;13.818;2024-01-06T01:04:55;18.17;;;7.28;;
43905;SDS011;29564;46.622;13.818;2024-01-06T01:05:57;14.73;;;7.50;;
43905;SDS011;29564;46.622;13.818;2024-01-06T01:06:59;13.52;;;6.85;;
43905;SDS011;29564;46.622;13.818;2024-01-06T01:08:00;16.05;;;6.63;;
43905;SDS011;29564;46.622;13.818;2024-01-06T01:09:01;19.92;;;8.32;;
43905;SDS011;29564;46.622;13.818;2024-01-06T01:10:03;14.48;;;8.07;;
43905;SDS011;29564;46.622;13.818;2024-01-06T01:11:05;18.00;;;8.00;;
43905;SDS011;29564;46.622;13.818;2024-01-06T01:12:07;17.65;;;7.90;;
43905;SDS011;29564;46.622;13.818;2024-01-06T01:13:08;14.90;;;6.85;;
43905;SDS011;29564;46.622;13.818;2024-01-06T01:14:09;16.95;;;7.47;;
43905;SDS011;29564;46.622;13.818;2024-01-06T01:15:11;17.67;;;8.55;;
43905;SDS011;29564;46.622;13.818;2024-01-06T01:16:12;14.15;;;7.05;;
43905;SDS011;29564;46.622;13.818;2024-01-06T01:17:13;14.02;;;6.95;;
43905;SDS011;29564;46.622;13.818;2024-01-06T01:18:15;18.23;;;7.20;;
43905;SDS011;29564;46.622;13.818;2024-01-06T01:19:16;17.17;;;7.95;;
43905;SDS011;29564;46.622;13.818;2024-01-06T01:20:17;13.13;;;7.38;;
43905;SDS011;29564;46.622;13.818;2024-01-06T01:21:19;17.88;;;6.20;;
43905;SDS011;29564;46.622;13.818;2024-01-06T01:22:20;20.38;;;7.28;;
43905;SDS011;29564;46.622;13.818;2024-01-06T01:23:22;16.52;;;7.10;;
43905;SDS011;29564;46.622;13.818;2024-01-06T01:24:23;13.85;;;6.75;;
43905;SDS011;29564;46.622;13.818;2024-01-06T01:25:24;12.13;;;5.95;;
43905;SDS011;29564;46.622;13.818;2024-01-06T01:26:26;12.75;;;6.22;;
43905;SDS011;29564;46.622;13.818;2024-01-06T01:27:27;15.48;;;7.57;;
43905;SDS011;29564;46.622;13.818;2024-01-06T01:28:28;21.77;;;7.45;;
43905;SDS011;29564;46.622;13.818;2024-01-06T01:29:30;14.98;;;7.22;;
43905;SDS011;29564;46.622;13.818;2024-01-06T01:30:31;15.20;;;6.55;;
43905;SDS011;29564;46.622;13.818;2024-01-06T01:31:33;13.93;;;6.72;;
43905;SDS011;29564;46.622;13.818;2024-01-06T01:32:34;18.25;;;7.47;;
43905;SDS011;29564;46.622;13.818;2024-01-06T01:33:36;17.65;;;6.47;;
43905;SDS011;29564;46.622;13.818;2024-01-06T01:34:37;19.92;;;7.85;;
43905;SDS011;29564;46.622;13.818;2024-01-06T01:35:38;16.67;;;7.30;;
43905;SDS011;29564;46.622;13.818;2024-01-06T01:36:40;14.80;;;7.35;;
43905;SDS011;29564;46.622;13.818;2024-01-06T01:37:41;15.30;;;7.18;;
43905;SDS011;29564;46.622;13.818;2024-01-06T01:38:43;20.15;;;8.68;;
43905;SDS011;29564;46.622;13.818;2024-01-06T01:39:44;17.63;;;7.55;;
43905;SDS011;29564;46.622;13.818;2024-01-06T01:40:45;16.17;;;7.38;;
43905;SDS011;29564;46.622;13.818;2024-01-06T01:41:47;16.38;;;7.65;;
43905;SDS011;29564;46.622;13.818;2024-01-06T01:42:48;13.15;;;6.97;;
43905;SDS011;29564;46.622;13.818;2024-01-06T01:43:49;14.40;;;5.97;;
43905;SDS011;29564;46.622;13.818;2024-01-06T01:44:58;15.85;;;6.53;;
43905;SDS011;29564;46.622;13.818;2024-01-06T01:46:00;16.90;;;7.20;;
43905;SDS011;29564;46.622;13.818;2024-01-06T01:47:03;14.77;;;7.10;;
43905;SDS011;29564;46.622;13.818;2024-01-06T01:48:05;17.38;;;7.05;;
43905;SDS011;29564;46.622;13.818;2024-01-06T01:49:07;16.85;;;7.70;;
43905;SDS011;29564;46.622;13.818;2024-01-06T01:50:08;13.55;;;6.90;;
43905;SDS011;29564;46.622;13.818;2024-01-06T01:51:12;14.40;;;6.90;;
43905;SDS011;29564;46.622;13.818;2024-01-06T01:52:13;13.93;;;6.57;;
43905;SDS011;29564;46.622;13.818;2024-01-06T01:53:16;13.98;;;6.88;;
43905;SDS011;29564;46.622;13.818;2024-01-06T01:54:18;14.30;;;6.30;;
43905;SDS011;29564;46.622;13.818;2024-01-06T01:55:19;13.60;;;7.35;;
43905;SDS011;29564;46.622;13.818;2024-01-06T01:56:21;11.23;;;6.65;;
43905;SDS011;29564;46.622;13.818;2024-01-06T01:57:23;16.63;;;7.30;;
43905;SDS011;29564;46.622;13.818;2024-01-06T01:58:25;13.55;;;5.47;;
43905;SDS011;29564;46.622;13.818;2024-01-06T01:59:27;11.40;;;5.80;;
43905;SDS011;29564;46.622;13.818;2024-01-06T02:00:28;12.68;;;6.35;;
43905;SDS011;29564;46.622;13.818;2024-01-06T02:01:29;14.23;;;6.75;;
43905;SDS011;29564;46.622;13.818;2024-01-06T02:02:31;11.98;;;6.00;;
43905;SDS011;29564;46.622;13.818;2024-01-06T02:03:32;16.92;;;6.53;;
43905;SDS011;29564;46.622;13.818;2024-01-06T02:04:35;12.02;;;6.18;;
43905;SDS011;29564;46.622;13.818;2024-01-06T02:05:36;18.83;;;6.63;;
43905;SDS011;29564;46.622;13.818;2024-01-06T02:06:38;17.52;;;7.43;;
43905;SDS011;29564;46.622;13.818;2024-01-06T02:07:39;16.23;;;6.88;;
43905;SDS011;29564;46.622;13.818;2024-01-06T02:08:41;14.45;;;6.53;;
43905;SDS011;29564;46.622;13.818;2024-01-06T02:09:42;14.30;;;6.78;;
43905;SDS011;29564;46.622;13.818;2024-01-06T02:10:44;12.80;;;6.78;;
43905;SDS011;29564;46.622;13.818;2024-01-06T02:11:45;12.93;;;6.55;;
43905;SDS011;29564;46.622;13.818;2024-01-06T02:12:46;15.55;;;6.35;;
43905;SDS011;29564;46.622;13.818;2024-01-06T02:13:49;13.57;;;6.15;;
43905;SDS011;29564;46.622;13.818;2024-01-06T02:14:50;16.85;;;6.38;;
43905;SDS011;29564;46.622;13.818;2024-01-06T02:15:51;16.35;;;7.07;;
43905;SDS011;29564;46.622;13.818;2024-01-06T02:16:53;16.98;;;7.68;;
43905;SDS011;29564;46.622;13.818;2024-01-06T02:17:55;15.13;;;6.03;;
43905;SDS011;29564;46.622;13.818;2024-01-06T02:18:56;16.08;;;6.95;;
43905;SDS011;29564;46.622;13.818;2024-01-06T02:19:58;17.67;;;6.95;;
43905;SDS011;29564;46.622;13.818;2024-01-06T02:21:00;16.45;;;6.38;;
43905;SDS011;29564;46.622;13.818;2024-01-06T02:22:03;11.27;;;6.10;;
43905;SDS011;29564;46.622;13.818;2024-01-06T02:23:04;18.90;;;6.22;;
43905;SDS011;29564;46.622;13.818;2024-01-06T02:24:05;13.48;;;6.57;;
43905;SDS011;29564;46.622;13.818;2024-01-06T02:25:07;12.93;;;5.40;;
43905;SDS011;29564;46.622;13.818;2024-01-06T02:26:13;10.85;;;5.95;;
43905;SDS011;29564;46.622;13.818;2024-01-06T02:27:15;14.15;;;5.63;;
43905;SDS011;29564;46.622;13.818;2024-01-06T02:28:16;14.32;;;5.95;;
43905;SDS011;29564;46.622;13.818;2024-01-06T02:29:18;10.52;;;5.72;;
43905;SDS011;29564;46.622;13.818;2024-01-06T02:30:19;10.10;;;6.50;;
43905;SDS011;29564;46.622;13.818;2024-01-06T02:31:20;14.65;;;6.65;;
43905;SDS011;29564;46.622;13.818;2024-01-06T02:32:22;13.55;;;6.07;;
43905;SDS011;29564;46.622;13.818;2024-01-06T02:33:23;13.77;;;6.55;;
43905;SDS011;29564;46.622;13.818;2024-01-06T02:34:24;8.40;;;5.85;;
43905;SDS011;29564;46.622;13.818;2024-01-06T02:35:26;11.38;;;6.30;;
43905;SDS011;29564;46.622;13.818;2024-01-06T02:36:27;11.10;;;5.43;;
43905;SDS011;29564;46.622;13.818;2024-01-06T02:37:28;11.35;;;4.65;;
43905;SDS011;29564;46.622;13.818;2024-01-06T02:38:30;11.73;;;5.82;;
43905;SDS011;29564;46.622;13.818;2024-01-06T02:39:31;13.43;;;5.90;;
43905;SDS011;29564;46.622;13.818;2024-01-06T02:40:32;12.40;;;5.80;;
43905;SDS011;29564;46.622;13.818;2024-01-06T02:41:34;11.90;;;5.57;;
43905;SDS011;29564;46.622;13.818;2024-01-06T02:42:35;12.88;;;6.05;;
43905;SDS011;29564;46.622;13.818;2024-01-06T02:43:37;13.15;;;5.28;;
43905;SDS011;29564;46.622;13.818;2024-01-06T02:44:38;14.13;;;5.65;;
43905;SDS011;29564;46.622;13.818;2024-01-06T02:45:39;14.18;;;4.57;;
43905;SDS011;29564;46.622;13.818;2024-01-06T02:46:41;11.98;;;5.78;;
43905;SDS011;29564;46.622;13.818;2024-01-06T02:47:42;11.05;;;6.00;;
43905;SDS011;29564;46.622;13.818;2024-01-06T02:48:43;13.52;;;5.43;;
43905;SDS011;29564;46.622;13.818;2024-01-06T02:49:44;12.68;;;5.28;;
43905;SDS011;29564;46.622;13.818;2024-01-06T02:50:46;13.07;;;5.40;;
43905;SDS011;29564;46.622;13.818;2024-01-06T02:51:47;11.20;;;5.13;;
43905;SDS011;29564;46.622;13.818;2024-01-06T02:52:48;11.55;;;5.35;;
43905;SDS011;29564;46.622;13.818;2024-01-06T02:53:49;20.48;;;4.97;;
43905;SDS011;29564;46.622;13.818;2024-01-06T02:54:51;9.65;;;5.22;;
43905;SDS011;29564;46.622;13.818;2024-01-06T02:55:52;10.45;;;4.88;;
43905;SDS011;29564;46.622;13.818;2024-01-06T02:56:53;13.13;;;5.88;;
43905;SDS011;29564;46.622;13.818;2024-01-06T02:57:55;12.13;;;5.45;;
43905;SDS011;29564;46.622;13.818;2024-01-06T02:58:56;14.07;;;5.65;;
43905;SDS011;29564;46.622;13.818;2024-01-06T02:59:57;14.15;;;5.18;;
43905;SDS011;29564;46.622;13.818;2024-01-06T03:00:58;12.13;;;6.47;;
43905;SDS011;29564;46.622;13.818;2024-01-06T03:02:01;16.20;;;5.60;;
43905;SDS011;29564;46.622;13.818;2024-01-06T03:03:02;9.88;;;5.10;;
43905;SDS011;29564;46.622;13.818;2024-01-06T03:04:04;9.90;;;4.70;;
43905;SDS011;29564;46.622;13.818;2024-01-06T03:05:05;11.35;;;5.35;;
43905;SDS011;29564;46.622;13.818;2024-01-06T03:06:07;10.52;;;5.18;;
43905;SDS011;29564;46.622;13.818;2024-01-06T03:07:08;12.90;;;5.97;;
43905;SDS011;29564;46.622;13.818;2024-01-06T03:08:09;9.70;;;5.20;;
43905;SDS011;29564;46.622;13.818;2024-01-06T03:09:11;16.50;;;5.47;;
43905;SDS011;29564;46.622;13.818;2024-01-06T03:10:12;13.95;;;5.25;;
43905;SDS011;29564;46.622;13.818;2024-01-06T03:11:13;10.82;;;4.20;;
43905;SDS011;29564;46.622;13.818;2024-01-06T03:12:15;8.88;;;4.50;;
43905;SDS011;29564;46.622;13.818;2024-01-06T03:13:17;9.77;;;4.75;;
43905;SDS011;29564;46.622;13.818;2024-01-06T03:14:18;10.95;;;5.45;;
43905;SDS011;29564;46.622;13.818;2024-01-06T03:15:19;10.00;;;4.80;;
43905;SDS011;29564;46.622;13.818;2024-01-06T03:16:20;13.30;;;5.45;;
43905;SDS011;29564;46.622;13.818;2024-01-06T03:17:25;8.15;;;4.60;;
43905;SDS011;29564;46.622;13.818;2024-01-06T03:18:26;9.02;;;4.43;;
43905;SDS011;29564;46.622;13.818;2024-01-06T03:19:27;13.45;;;5.20;;
43905;SDS011;29564;46.622;13.818;2024-01-06T03:20:29;10.27;;;4.85;;
43905;SDS011;29564;46.622;13.818;2024-01-06T03:21:30;12.65;;;5.10;;
43905;SDS011;29564;46.622;13.818;2024-01-06T03:22:32;10.35;;;5.03;;
43905;SDS011;29564;46.622;13.818;2024-01-06T03:23:33;10.18;;;4.60;;
43905;SDS011;29564;46.622;13.818;2024-01-06T03:24:34;11.63;;;5.57;;
43905;SDS011;29564;46.622;13.818;2024-01-06T03:25:36;15.15;;;4.47;;
43905;SDS011;29564;46.622;13.818;2024-01-06T03:26:37;12.30;;;4.75;;
43905;SDS011;29564;46.622;13.818;2024-01-06T03:27:41;9.90;;;4.05;;
43905;SDS011;29564;46.622;13.818;2024-01-06T03:28:42;11.75;;;5.03;;
43905;SDS011;29564;46.622;13.818;2024-01-06T03:29:44;11.90;;;4.43;;
43905;SDS011;29564;46.622;13.818;2024-01-06T03:30:45;13.95;;;4.82;;
43905;SDS011;29564;46.622;13.818;2024-01-06T03:31:46;10.93;;;4.35;;
43905;SDS011;29564;46.622;13.818;2024-01-06T03:32:48;8.82;;;4.97;;
43905;SDS011;29564;46.622;13.818;2024-01-06T03:33:49;8.00;;;4.72;;
43905;SDS011;29564;46.622;13.818;2024-01-06T03:34:52;9.68;;;4.68;;
43905;SDS011;29564;46.622;13.818;2024-01-06T03:35:53;12.90;;;5.20;;
43905;SDS011;29564;46.622;13.818;2024-01-06T03:36:54;10.73;;;4.95;;
43905;SDS011;29564;46.622;13.818;2024-01-06T03:37:55;9.70;;;5.72;;
43905;SDS011;29564;46.622;13.818;2024-01-06T03:38:57;9.98;;;5.22;;
43905;SDS011;29564;46.622;13.818;2024-01-06T03:39:58;8.02;;;4.53;;
43905;SDS011;29564;46.622;13.818;2024-01-06T03:40:59;15.90;;;5.30;;
43905;SDS011;29564;46.622;13.818;2024-01-06T03:42:01;11.23;;;4.13;;
43905;SDS011;29564;46.622;13.818;2024-01-06T03:43:03;8.88;;;4.75;;
43905;SDS011;29564;46.622;13.818;2024-01-06T03:44:04;14.98;;;5.15;;
43905;SDS011;29564;46.622;13.818;2024-01-06T03:45:06;7.85;;;4.60;;
43905;SDS011;29564;46.622;13.818;2024-01-06T03:46:07;11.43;;;5.30;;
43905;SDS011;29564;46.622;13.818;2024-01-06T03:47:09;10.82;;;5.05;;
43905;SDS011;29564;46.622;13.818;2024-01-06T03:48:10;7.32;;;4.80;;
43905;SDS011;29564;46.622;13.818;2024-01-06T03:49:11;12.23;;;4.78;;
43905;SDS011;29564;46.622;13.818;2024-01-06T03:50:13;10.50;;;5.30;;
43905;SDS011;29564;46.622;13.818;2024-01-06T03:51:14;8.95;;;5.18;;
43905;SDS011;29564;46.622;13.818;2024-01-06T03:52:16;13.00;;;5.97;;
43905;SDS011;29564;46.622;13.818;2024-01-06T03:53:17;11.95;;;4.95;;
43905;SDS011;29564;46.622;13.818;2024-01-06T03:54:18;10.02;;;4.63;;
43905;SDS011;29564;46.622;13.818;2024-01-06T03:55:20;10.23;;;5.07;;
43905;SDS011;29564;46.622;13.818;2024-01-06T03:56:21;10.55;;;4.78;;
43905;SDS011;29564;46.622;13.818;2024-01-06T03:57:22;6.93;;;4.25;;
43905;SDS011;29564;46.622;13.818;2024-01-06T03:58:23;10.60;;;4.47;;
43905;SDS011;29564;46.622;13.818;2024-01-06T03:59:25;12.07;;;4.95;;
43905;SDS011;29564;46.622;13.818;2024-01-06T04:00:26;11.15;;;4.25;;
43905;SDS011;29564;46.622;13.818;2024-01-06T04:01:27;11.73;;;5.38;;
43905;SDS011;29564;46.622;13.818;2024-01-06T04:02:29;13.65;;;5.07;;
43905;SDS011;29564;46.622;13.818;2024-01-06T04:03:30;12.88;;;5.85;;
43905;SDS011;29564;46.622;13.818;2024-01-06T04:04:32;9.65;;;4.80;;
43905;SDS011;29564;46.622;13.818;2024-01-06T04:05:33;12.93;;;4.78;;
43905;SDS011;29564;46.622;13.818;2024-01-06T04:06:34;15.93;;;5.68;;
43905;SDS011;29564;46.622;13.818;2024-01-06T04:07:35;13.13;;;5.07;;
43905;SDS011;29564;46.622;13.818;2024-01-06T04:08:38;13.98;;;4.80;;
43905;SDS011;29564;46.622;13.818;2024-01-06T04:10:44;10.00;;;4.85;;
43905;SDS011;29564;46.622;13.818;2024-01-06T04:11:45;14.18;;;5.63;;
43905;SDS011;29564;46.622;13.818;2024-01-06T04:12:46;11.80;;;5.00;;
43905;SDS011;29564;46.622;13.818;2024-01-06T04:13:48;13.77;;;4.88;;
43905;SDS011;29564;46.622;13.818;2024-01-06T04:14:49;12.70;;;5.05;;
43905;SDS011;29564;46.622;13.818;2024-01-06T04:15:50;11.65;;;4.60;;
43905;SDS011;29564;46.622;13.818;2024-01-06T04:16:52;10.13;;;4.60;;
43905;SDS011;29564;46.622;13.818;2024-01-06T04:17:54;9.43;;;5.07;;
43905;SDS011;29564;46.622;13.818;2024-01-06T04:18:55;9.95;;;4.80;;
43905;SDS011;29564;46.622;13.818;2024-01-06T04:19:56;10.70;;;4.50;;
43905;SDS011;29564;46.622;13.818;2024-01-06T04:20:57;9.27;;;4.30;;
43905;SDS011;29564;46.622;13.818;2024-01-06T04:21:59;11.88;;;5.82;;
43905;SDS011;29564;46.622;13.818;2024-01-06T04:23:01;10.75;;;4.82;;
43905;SDS011;29564;46.622;13.818;2024-01-06T04:24:02;9.65;;;4.65;;
43905;SDS011;29564;46.622;13.818;2024-01-06T04:25:04;9.00;;;4.50;;
43905;SDS011;29564;46.622;13.818;2024-01-06T04:26:05;12.05;;;4.97;;
43905;SDS011;29564;46.622;13.818;2024-01-06T04:27:07;8.45;;;4.50;;
43905;SDS011;29564;46.622;13.818;2024-01-06T04:28:10;13.55;;;4.95;;
43905;SDS011;29564;46.622;13.818;2024-01-06T04:29:11;10.68;;;4.82;;
43905;SDS011;29564;46.622;13.818;2024-01-06T04:30:13;12.13;;;5.10;;
43905;SDS011;29564;46.622;13.818;2024-01-06T04:31:15;11.73;;;4.97;;
43905;SDS011;29564;46.622;13.818;2024-01-06T04:32:16;10.77;;;4.43;;
43905;SDS011;29564;46.622;13.818;2024-01-06T04:33:17;10.18;;;4.90;;
43905;SDS011;29564;46.622;13.818;2024-01-06T04:34:18;10.68;;;4.28;;
43905;SDS011;29564;46.622;13.818;2024-01-06T04:35:20;12.05;;;5.32;;
43905;SDS011;29564;46.622;13.818;2024-01-06T04:36:21;10.88;;;4.47;;
43905;SDS011;29564;46.622;13.818;2024-01-06T04:37:23;11.45;;;5.00;;
43905;SDS011;29564;46.622;13.818;2024-01-06T04:38:24;12.02;;;4.38;;
43905;SDS011;29564;46.622;13.818;2024-01-06T04:39:25;10.18;;;4.40;;
43905;SDS011;29564;46.622;13.818;2024-01-06T04:40:27;11.85;;;5.70;;
43905;SDS011;29564;46.622;13.818;2024-01-06T04:41:28;8.55;;;4.43;;
43905;SDS011;29564;46.622;13.818;2024-01-06T04:42:29;11.02;;;6.25;;
43905;SDS011;29564;46.622;13.818;2024-01-06T04:43:31;11.38;;;4.80;;
43905;SDS011;29564;46.622;13.818;2024-01-06T04:44:32;12.50;;;5.68;;
43905;SDS011;29564;46.622;13.818;2024-01-06T04:45:33;9.10;;;4.55;;
43905;SDS011;29564;46.622;13.818;2024-01-06T04:46:35;9.43;;;4.38;;
43905;SDS011;29564;46.622;13.818;2024-01-06T04:47:36;9.13;;;5.55;;
43905;SDS011;29564;46.622;13.818;2024-01-06T04:48:38;10.32;;;4.80;;
43905;SDS011;29564;46.622;13.818;2024-01-06T04:49:41;8.00;;;3.55;;
43905;SDS011;29564;46.622;13.818;2024-01-06T04:50:43;8.63;;;4.40;;
43905;SDS011;29564;46.622;13.818;2024-01-06T04:51:44;10.15;;;5.15;;
43905;SDS011;29564;46.622;13.818;2024-01-06T04:52:45;12.55;;;4.60;;
43905;SDS011;29564;46.622;13.818;2024-01-06T04:53:47;11.60;;;4.82;;
43905;SDS011;29564;46.622;13.818;2024-01-06T04:54:48;8.35;;;4.85;;
43905;SDS011;29564;46.622;13.818;2024-01-06T04:55:49;8.02;;;4.88;;
43905;SDS011;29564;46.622;13.818;2024-01-06T04:56:50;9.43;;;4.30;;
43905;SDS011;29564;46.622;13.818;2024-01-06T04:57:52;9.63;;;4.88;;
43905;SDS011;29564;46.622;13.818;2024-01-06T04:58:53;8.43;;;4.50;;
43905;SDS011;29564;46.622;13.818;2024-01-06T04:59:55;12.85;;;4.97;;
43905;SDS011;29564;46.622;13.818;2024-01-06T05:00:56;8.15;;;4.60;;
43905;SDS011;29564;46.622;13.818;2024-01-06T05:01:58;9.40;;;4.20;;
43905;SDS011;29564;46.622;13.818;2024-01-06T05:02:59;8.50;;;4.78;;
43905;SDS011;29564;46.622;13.818;2024-01-06T05:04:01;10.40;;;4.63;;
43905;SDS011;29564;46.622;13.818;2024-01-06T05:05:02;11.23;;;4.65;;
43905;SDS011;29564;46.622;13.818;2024-01-06T05:06:03;13.75;;;4.53;;
43905;SDS011;29564;46.622;13.818;2024-01-06T05:07:05;9.52;;;4.80;;
43905;SDS011;29564;46.622;13.818;2024-01-06T05:08:06;6.57;;;4.45;;
43905;SDS011;29564;46.622;13.818;2024-01-06T05:09:07;9.52;;;3.88;;
43905;SDS011;29564;46.622;13.818;2024-01-06T05:10:09;9.52;;;4.65;;
43905;SDS011;29564;46.622;13.818;2024-01-06T05:11:10;10.63;;;4.15;;
43905;SDS011;29564;46.622;13.818;2024-01-06T05:12:12;11.05;;;4.32;;
43905;SDS011;29564;46.622;13.818;2024-01-06T05:13:13;8.07;;;4.22;;
43905;SDS011;29564;46.622;13.818;2024-01-06T05:14:14;7.68;;;4.10;;
43905;SDS011;29564;46.622;13.818;2024-01-06T05:15:16;11.70;;;4.68;;
43905;SDS011;29564;46.622;13.818;2024-01-06T05:16:17;7.50;;;4.80;;
43905;SDS011;29564;46.622;13.818;2024-01-06T05:17:18;10.40;;;4.30;;
43905;SDS011;29564;46.622;13.818;2024-01-06T05:18:20;9.02;;;4.72;;
43905;SDS011;29564;46.622;13.818;2024-01-06T05:19:21;9.25;;;4.50;;
43905;SDS011;29564;46.622;13.818;2024-01-06T05:20:22;9.30;;;3.63;;
43905;SDS011;29564;46.622;13.818;2024-01-06T05:21:24;8.70;;;4.47;;
43905;SDS011;29564;46.622;13.818;2024-01-06T05:22:26;9.15;;;5.38;;
43905;SDS011;29564;46.622;13.818;2024-01-06T05:23:28;9.63;;;4.18;;
43905;SDS011;29564;46.622;13.818;2024-01-06T05:24:29;7.68;;;3.42;;
43905;SDS011;29564;46.622;13.818;2024-01-06T05:25:30;8.35;;;4.50;;
43905;SDS011;29564;46.622;13.818;2024-01-06T05:26:32;9.55;;;4.32;;
43905;SDS011;29564;46.622;13.818;2024-01-06T05:27:33;14.52;;;6.00;;
43905;SDS011;29564;46.622;13.818;2024-01-06T05:28:35;11.32;;;5.80;;
43905;SDS011;29564;46.622;13.818;2024-01-06T05:29:36;12.13;;;5.25;;
43905;SDS011;29564;46.622;13.818;2024-01-06T05:30:37;12.88;;;6.03;;
43905;SDS011;29564;46.622;13.818;2024-01-06T05:31:38;10.15;;;4.97;;
43905;SDS011;29564;46.622;13.818;2024-01-06T05:32:40;12.13;;;4.63;;
43905;SDS011;29564;46.622;13.818;2024-01-06T05:33:41;12.50;;;5.07;;
43905;SDS011;29564;46.622;13.818;2024-01-06T05:34:43;10.20;;;5.60;;
43905;SDS011;29564;46.622;13.818;2024-01-06T05:35:45;9.63;;;5.15;;
43905;SDS011;29564;46.622;13.818;2024-01-06T05:36:46;8.23;;;5.07;;
43905;SDS011;29564;46.622;13.818;2024-01-06T05:37:47;11.32;;;4.45;;
43905;SDS011;29564;46.622;13.818;2024-01-06T05:38:48;15.50;;;5.40;;
43905;SDS011;29564;46.622;13.818;2024-01-06T05:39:50;8.30;;;4.63;;
43905;SDS011;29564;46.622;13.818;2024-01-06T05:40:52;9.32;;;4.53;;
43905;SDS011;29564;46.622;13.818;2024-01-06T05:41:53;9.38;;;4.72;;
43905;SDS011;29564;46.622;13.818;2024-01-06T05:42:55;9.95;;;4.78;;
43905;SDS011;29564;46.622;13.818;2024-01-06T05:43:57;11.48;;;4.55;;
43905;SDS011;29564;46.622;13.818;2024-01-06T05:44:58;9.07;;;5.18;;
43905;SDS011;29564;46.622;13.818;2024-01-06T05:46:00;8.40;;;4.38;;
43905;SDS011;29564;46.622;13.818;2024-01-06T05:47:01;11.57;;;5.00;;
43905;SDS011;29564;46.622;13.818;2024-01-06T05:48:02;10.27;;;5.22;;
43905;SDS011;29564;46.622;13.818;2024-01-06T05:49:05;11.65;;;5.38;;
43905;SDS011;29564;46.622;13.818;2024-01-06T05:50:06;10.52;;;4.65;;
43905;SDS011;29564;46.622;13.818;2024-01-06T05:51:10;9.20;;;4.63;;
43905;SDS011;29564;46.622;13.818;2024-01-06T05:52:12;8.25;;;4.82;;
43905;SDS011;29564;46.622;13.818;2024-01-06T05:53:13;9.43;;;4.45;;
43905;SDS011;29564;46.622;13.818;2024-01-06T05:54:18;9.25;;;4.80;;
43905;SDS011;29564;46.622;13.818;2024-01-06T05:55:20;8.95;;;5.13;;
43905;SDS011;29564;46.622;13.818;2024-01-06T05:56:22;11.05;;;5.10;;
43905;SDS011;29564;46.622;13.818;2024-01-06T05:57:25;11.50;;;5.03;;
43905;SDS011;29564;46.622;13.818;2024-01-06T05:58:27;10.05;;;4.85;;
43905;SDS011;29564;46.622;13.818;2024-01-06T05:59:28;10.52;;;5.22;;
43905;SDS011;29564;46.622;13.818;2024-01-06T06:00:29;10.82;;;4.90;;
43905;SDS011;29564;46.622;13.818;2024-01-06T06:01:32;10.27;;;4.80;;